sensor_id;sensor_type;location;lat;lon;timestamp;pressure;altitude;pressure_sealevel;temperature;humidity
68891;BME280;55932;48.702;8.884;2023-05-08T00:00:42;96390;;;14.4;72
68891;BME280;55932;48.702;8.884;2023-05-08T00:03:13;96390;;;14.5;71.5
68891;BME280;55932;48.702;8.884;2023-05-08T00:08:08;96390;;;14.3;72.5
68891;BME280;55932;48.702;8.884;2023-05-08T00:10:39;96390;;;14.3;72.5
68891;BME280;55932;48.702;8.884;2023-05-08T00:13:10;96390;;;14.4;72
68891;BME280;55932;48.702;8.884;2023-05-08T00:15:41;96390;;;14.4;72
68891;BME280;55932;48.702;8.884;2023-05-08T00:18:12;96390;;;14.5;72
68891;BME280;55932;48.702;8.884;2023-05-08T00:20:46;96390;;;14.5;71.5
68891;BME280;55932;48.702;8.884;2023-05-08T00:23:14;96390;;;14.5;71.5
68891;BME280;55932;48.702;8.884;2023-05-08T00:25:45;96390;;;14.4;71.5
68891;BME280;55932;48.702;8.884;2023-05-08T00:28:16;96390;;;14.4;71.5
68891;BME280;55932;48.702;8.884;2023-05-08T00:30:53;96400;;;14.3;72
68891;BME280;55932;48.702;8.884;2023-05-08T00:35:49;96400;;;14.4;71.5
68891;BME280;55932;48.702;8.884;2023-05-08T00:38:20;96400;;;14.4;71.5
68891;BME280;55932;48.702;8.884;2023-05-08T00:43:22;96400;;;14.4;71.5
68891;BME280;55932;48.702;8.884;2023-05-08T00:45:53;96400;;;14.3;72
68891;BME280;55932;48.702;8.884;2023-05-08T00:48:24;96400;;;14.2;72
68891;BME280;55932;48.702;8.884;2023-05-08T00:50:54;96410;;;14.2;72
68891;BME280;55932;48.702;8.884;2023-05-08T00:53:25;96410;;;14.3;72
68891;BME280;55932;48.702;8.884;2023-05-08T00:56:04;96410;;;14.3;71.5
68891;BME280;55932;48.702;8.884;2023-05-08T00:58:34;96410;;;14.3;71.5
68891;BME280;55932;48.702;8.884;2023-05-08T01:00:59;96410;;;14.3;71.5
68891;BME280;55932;48.702;8.884;2023-05-08T01:03:29;96410;;;14.3;72
68891;BME280;55932;48.702;8.884;2023-05-08T01:08:32;96410;;;14.3;72
68891;BME280;55932;48.702;8.884;2023-05-08T01:11:05;96410;;;14.3;72
68891;BME280;55932;48.702;8.884;2023-05-08T01:14:06;96410;;;14.3;72
68891;BME280;55932;48.702;8.884;2023-05-08T01:16:15;96410;;;14.2;72
68891;BME280;55932;48.702;8.884;2023-05-08T01:21:12;96410;;;14.1;72.5
68891;BME280;55932;48.702;8.884;2023-05-08T01:23:51;96410;;;14;72.5
68891;BME280;55932;48.702;8.884;2023-05-08T01:26:19;96410;;;14.1;72.5
68891;BME280;55932;48.702;8.884;2023-05-08T01:31:11;96410;;;14.1;72
68891;BME280;55932;48.702;8.884;2023-05-08T01:36:17;96410;;;14.1;72
68891;BME280;55932;48.702;8.884;2023-05-08T01:41:15;96410;;;14.1;72
68891;BME280;55932;48.702;8.884;2023-05-08T01:43:47;96410;;;14;72
68891;BME280;55932;48.702;8.884;2023-05-08T01:46:24;96410;;;14;72
68891;BME280;55932;48.702;8.884;2023-05-08T01:53:55;96410;;;14;72
68891;BME280;55932;48.702;8.884;2023-05-08T01:56:24;96410;;;13.9;72
68891;BME280;55932;48.702;8.884;2023-05-08T01:58:55;96420;;;13.9;72
68891;BME280;55932;48.702;8.884;2023-05-08T02:03:49;96420;;;13.9;72
68891;BME280;55932;48.702;8.884;2023-05-08T02:06:20;96420;;;13.9;72
68891;BME280;55932;48.702;8.884;2023-05-08T02:08:51;96420;;;13.9;72
68891;BME280;55932;48.702;8.884;2023-05-08T02:11:22;96420;;;13.9;72
68891;BME280;55932;48.702;8.884;2023-05-08T02:13:59;96420;;;13.9;72
68891;BME280;55932;48.702;8.884;2023-05-08T02:18:55;96420;;;13.9;72
68891;BME280;55932;48.702;8.884;2023-05-08T02:24:03;96420;;;13.7;72
68891;BME280;55932;48.702;8.884;2023-05-08T02:26:33;96420;;;13.6;72.5
68891;BME280;55932;48.702;8.884;2023-05-08T02:28:57;96420;;;13.5;72.5
68891;BME280;55932;48.702;8.884;2023-05-08T02:31:28;96430;;;13.5;72.5
68891;BME280;55932;48.702;8.884;2023-05-08T02:33:59;96430;;;13.6;72.5
68891;BME280;55932;48.702;8.884;2023-05-08T02:41:27;96420;;;13.6;72.5
68891;BME280;55932;48.702;8.884;2023-05-08T02:43:56;96420;;;13.6;72
68891;BME280;55932;48.702;8.884;2023-05-08T02:46:59;96420;;;13.6;72.5
68891;BME280;55932;48.702;8.884;2023-05-08T02:48:59;96420;;;13.6;72.5
68891;BME280;55932;48.702;8.884;2023-05-08T02:51:34;96430;;;13.6;72
68891;BME280;55932;48.702;8.884;2023-05-08T02:54:03;96430;;;13.6;72
68891;BME280;55932;48.702;8.884;2023-05-08T02:56:33;96430;;;13.6;72
68891;BME280;55932;48.702;8.884;2023-05-08T02:59:09;96430;;;13.5;72
68891;BME280;55932;48.702;8.884;2023-05-08T03:01:36;96430;;;13.5;72
68891;BME280;55932;48.702;8.884;2023-05-08T03:04:04;96430;;;13.4;72
68891;BME280;55932;48.702;8.884;2023-05-08T03:11:38;96420;;;13.2;72.5
68891;BME280;55932;48.702;8.884;2023-05-08T03:16:43;96420;;;13.4;72
68891;BME280;55932;48.702;8.884;2023-05-08T03:19:14;96420;;;13.4;72
68891;BME280;55932;48.702;8.884;2023-05-08T03:21:44;96420;;;13.4;72
68891;BME280;55932;48.702;8.884;2023-05-08T03:24:15;96420;;;13.3;72
68891;BME280;55932;48.702;8.884;2023-05-08T03:34:37;96430;;;13.3;72.5
68891;BME280;55932;48.702;8.884;2023-05-08T03:36:54;96430;;;13.4;72.5
68891;BME280;55932;48.702;8.884;2023-05-08T03:41:55;96430;;;13.5;72
68891;BME280;55932;48.702;8.884;2023-05-08T03:44:26;96420;;;13.6;72
68891;BME280;55932;48.702;8.884;2023-05-08T03:46:55;96420;;;13.6;72
68891;BME280;55932;48.702;8.884;2023-05-08T03:49:32;96420;;;13.6;72
68891;BME280;55932;48.702;8.884;2023-05-08T03:51:56;96420;;;13.6;72
68891;BME280;55932;48.702;8.884;2023-05-08T03:56:50;96420;;;13.7;71.5
68891;BME280;55932;48.702;8.884;2023-05-08T03:59:23;96430;;;13.7;71.5
68891;BME280;55932;48.702;8.884;2023-05-08T04:01:54;96430;;;13.7;72
68891;BME280;55932;48.702;8.884;2023-05-08T04:04:29;96430;;;13.8;71.5
68891;BME280;55932;48.702;8.884;2023-05-08T04:06:55;96430;;;13.9;71.5
68891;BME280;55932;48.702;8.884;2023-05-08T04:09:26;96430;;;14;71.5
68891;BME280;55932;48.702;8.884;2023-05-08T04:11:59;96430;;;14.1;71
68891;BME280;55932;48.702;8.884;2023-05-08T04:14:31;96440;;;14.1;71
68891;BME280;55932;48.702;8.884;2023-05-08T04:17:00;96440;;;14.2;71
68891;BME280;55932;48.702;8.884;2023-05-08T04:19:32;96450;;;14.2;71
68891;BME280;55932;48.702;8.884;2023-05-08T04:22:07;96450;;;14.2;71
68891;BME280;55932;48.702;8.884;2023-05-08T04:29:52;96450;;;14.4;71
68891;BME280;55932;48.702;8.884;2023-05-08T04:32:10;96450;;;14.5;71
68891;BME280;55932;48.702;8.884;2023-05-08T04:37:05;96450;;;14.6;71
68891;BME280;55932;48.702;8.884;2023-05-08T04:39:34;96450;;;14.6;71
68891;BME280;55932;48.702;8.884;2023-05-08T04:42:06;96450;;;14.6;71
68891;BME280;55932;48.702;8.884;2023-05-08T04:44:37;96450;;;14.7;71
68891;BME280;55932;48.702;8.884;2023-05-08T04:47:07;96460;;;14.6;71
68891;BME280;55932;48.702;8.884;2023-05-08T04:49:45;96460;;;14.6;71
68891;BME280;55932;48.702;8.884;2023-05-08T04:57:32;96460;;;14.6;71.5
68891;BME280;55932;48.702;8.884;2023-05-08T04:59:47;96460;;;14.6;71.5
68891;BME280;55932;48.702;8.884;2023-05-08T05:02:18;96470;;;14.5;71.5
68891;BME280;55932;48.702;8.884;2023-05-08T05:07:12;96480;;;14.4;72
68891;BME280;55932;48.702;8.884;2023-05-08T05:09:43;96480;;;14.6;71.5
68891;BME280;55932;48.702;8.884;2023-05-08T05:12:14;96470;;;14.5;71.5
68891;BME280;55932;48.702;8.884;2023-05-08T05:14:45;96470;;;14.4;72
68891;BME280;55932;48.702;8.884;2023-05-08T05:19:59;96470;;;14.5;72
68891;BME280;55932;48.702;8.884;2023-05-08T05:22:36;96480;;;14.6;71.5
68891;BME280;55932;48.702;8.884;2023-05-08T05:24:54;96480;;;14.5;71.5
68891;BME280;55932;48.702;8.884;2023-05-08T05:27:24;96480;;;14.6;71.5
68891;BME280;55932;48.702;8.884;2023-05-08T05:29:54;96480;;;14.6;72
68891;BME280;55932;48.702;8.884;2023-05-08T05:32:24;96480;;;14.8;71
68891;BME280;55932;48.702;8.884;2023-05-08T05:34:54;96480;;;14.8;71.5
68891;BME280;55932;48.702;8.884;2023-05-08T05:37:24;96480;;;15;71
68891;BME280;55932;48.702;8.884;2023-05-08T05:39:54;96480;;;15;71
68891;BME280;55932;48.702;8.884;2023-05-08T05:42:24;96480;;;15.1;71
68891;BME280;55932;48.702;8.884;2023-05-08T05:45:01;96480;;;15;71.5
68891;BME280;55932;48.702;8.884;2023-05-08T05:47:18;96480;;;15;71.5
68891;BME280;55932;48.702;8.884;2023-05-08T05:49:49;96480;;;15.1;71
68891;BME280;55932;48.702;8.884;2023-05-08T05:52:21;96480;;;15.1;71
68891;BME280;55932;48.702;8.884;2023-05-08T05:54:51;96480;;;15;71.5
68891;BME280;55932;48.702;8.884;2023-05-08T05:57:22;96480;;;15.1;71
68891;BME280;55932;48.702;8.884;2023-05-08T05:59:53;96480;;;15;71.5
68891;BME280;55932;48.702;8.884;2023-05-08T06:02:24;96490;;;14.8;71.5
68891;BME280;55932;48.702;8.884;2023-05-08T06:04:55;96490;;;14.8;71.5
68891;BME280;55932;48.702;8.884;2023-05-08T06:07:26;96490;;;15;71.5
68891;BME280;55932;48.702;8.884;2023-05-08T06:09:50;96490;;;15.1;71.5
68891;BME280;55932;48.702;8.884;2023-05-08T06:22:49;96500;;;15.3;71.5
68891;BME280;55932;48.702;8.884;2023-05-08T06:25:06;96500;;;15.2;71.5
68891;BME280;55932;48.702;8.884;2023-05-08T06:27:36;96500;;;15;72
68891;BME280;55932;48.702;8.884;2023-05-08T06:32:31;96500;;;15;72
68891;BME280;55932;48.702;8.884;2023-05-08T06:35:01;96500;;;15.2;71.5
68891;BME280;55932;48.702;8.884;2023-05-08T06:37:32;96510;;;15.4;71.5
68891;BME280;55932;48.702;8.884;2023-05-08T06:40:02;96500;;;15.5;71
68891;BME280;55932;48.702;8.884;2023-05-08T06:42:34;96500;;;15.6;71
68891;BME280;55932;48.702;8.884;2023-05-08T06:45:14;96510;;;15.9;70.5
68891;BME280;55932;48.702;8.884;2023-05-08T06:50:07;96500;;;16;70.5
68891;BME280;55932;48.702;8.884;2023-05-08T06:52:38;96500;;;16;70.5
68891;BME280;55932;48.702;8.884;2023-05-08T06:55:09;96500;;;16;71
68891;BME280;55932;48.702;8.884;2023-05-08T06:57:40;96500;;;16.1;70.5
68891;BME280;55932;48.702;8.884;2023-05-08T07:00:11;96500;;;16.1;70.5
68891;BME280;55932;48.702;8.884;2023-05-08T07:05:18;96500;;;16;71
68891;BME280;55932;48.702;8.884;2023-05-08T07:07:42;96510;;;16;71
68891;BME280;55932;48.702;8.884;2023-05-08T07:10:13;96510;;;15.9;71
68891;BME280;55932;48.702;8.884;2023-05-08T07:12:51;96510;;;16;70.5
68891;BME280;55932;48.702;8.884;2023-05-08T07:15:22;96510;;;15.8;71
68891;BME280;55932;48.702;8.884;2023-05-08T07:20:18;96500;;;15.9;71
68891;BME280;55932;48.702;8.884;2023-05-08T07:22:48;96510;;;16;70.5
68891;BME280;55932;48.702;8.884;2023-05-08T07:25:19;96510;;;16;71
68891;BME280;55932;48.702;8.884;2023-05-08T07:27:50;96510;;;16.2;70.5
68891;BME280;55932;48.702;8.884;2023-05-08T07:30:22;96510;;;16.3;70.5
68891;BME280;55932;48.702;8.884;2023-05-08T07:35:16;96510;;;16.8;70
68891;BME280;55932;48.702;8.884;2023-05-08T07:37:47;96510;;;16.9;69.5
68891;BME280;55932;48.702;8.884;2023-05-08T07:45:19;96510;;;16.9;70
68891;BME280;55932;48.702;8.884;2023-05-08T07:47:51;96510;;;17.1;70
68891;BME280;55932;48.702;8.884;2023-05-08T07:50:21;96520;;;17;70.5
68891;BME280;55932;48.702;8.884;2023-05-08T07:52:51;96520;;;16.9;70.5
68891;BME280;55932;48.702;8.884;2023-05-08T07:55:22;96520;;;16.8;70.5
68891;BME280;55932;48.702;8.884;2023-05-08T07:57:53;96520;;;16.7;70.5
68891;BME280;55932;48.702;8.884;2023-05-08T08:00:24;96520;;;16.8;70
68891;BME280;55932;48.702;8.884;2023-05-08T08:02:54;96520;;;16.5;70.5
68891;BME280;55932;48.702;8.884;2023-05-08T08:17:59;96520;;;15.9;71
68891;BME280;55932;48.702;8.884;2023-05-08T08:23:13;96530;;;16.1;71
68891;BME280;55932;48.702;8.884;2023-05-08T08:25:44;96530;;;16.2;71
68891;BME280;55932;48.702;8.884;2023-05-08T08:30:37;96530;;;15.8;71.5
68891;BME280;55932;48.702;8.884;2023-05-08T08:33:09;96530;;;15.6;71.5
68891;BME280;55932;48.702;8.884;2023-05-08T08:35:39;96530;;;15.7;71.5
68891;BME280;55932;48.702;8.884;2023-05-08T08:38:17;96530;;;15.6;71.5
68891;BME280;55932;48.702;8.884;2023-05-08T08:46:03;96530;;;16;71
68891;BME280;55932;48.702;8.884;2023-05-08T08:48:19;96530;;;16.3;71
68891;BME280;55932;48.702;8.884;2023-05-08T08:50:49;96520;;;16.3;71
68891;BME280;55932;48.702;8.884;2023-05-08T08:53:21;96530;;;16.5;71
68891;BME280;55932;48.702;8.884;2023-05-08T08:58:21;96530;;;16.9;70.5
68891;BME280;55932;48.702;8.884;2023-05-08T09:00:44;96530;;;16.9;70.5
68891;BME280;55932;48.702;8.884;2023-05-08T09:03:16;96530;;;17.1;70.5
68891;BME280;55932;48.702;8.884;2023-05-08T09:08:10;96530;;;17.3;70.5
68891;BME280;55932;48.702;8.884;2023-05-08T09:10:40;96530;;;17.3;70.5
68891;BME280;55932;48.702;8.884;2023-05-08T09:13:11;96530;;;17.4;70.5
68891;BME280;55932;48.702;8.884;2023-05-08T09:15:42;96530;;;17.5;70.5
68891;BME280;55932;48.702;8.884;2023-05-08T09:18:13;96530;;;17.8;69.5
68891;BME280;55932;48.702;8.884;2023-05-08T09:20:44;96530;;;17.7;70
68891;BME280;55932;48.702;8.884;2023-05-08T09:23:14;96540;;;17.3;70.5
68891;BME280;55932;48.702;8.884;2023-05-08T09:25:46;96530;;;17.2;70.5
68891;BME280;55932;48.702;8.884;2023-05-08T09:35:49;96540;;;17.2;71
68891;BME280;55932;48.702;8.884;2023-05-08T09:41:04;96540;;;17.7;70
68891;BME280;55932;48.702;8.884;2023-05-08T09:43:28;96540;;;17.8;70
68891;BME280;55932;48.702;8.884;2023-05-08T09:46:25;96540;;;17.8;70.5
68891;BME280;55932;48.702;8.884;2023-05-08T09:48:36;96550;;;17.9;70
68891;BME280;55932;48.702;8.884;2023-05-08T09:51:07;96550;;;17.5;70.5
68891;BME280;55932;48.702;8.884;2023-05-08T09:53:31;96540;;;17.2;71
68891;BME280;55932;48.702;8.884;2023-05-08T09:56:02;96550;;;17.1;71
68891;BME280;55932;48.702;8.884;2023-05-08T09:58:40;96550;;;17;71
68891;BME280;55932;48.702;8.884;2023-05-08T10:01:04;96550;;;16.9;71.5
68891;BME280;55932;48.702;8.884;2023-05-08T10:03:45;96550;;;16.9;71.5
68891;BME280;55932;48.702;8.884;2023-05-08T10:06:12;96550;;;16.8;71.5
68891;BME280;55932;48.702;8.884;2023-05-08T10:08:37;96560;;;16.7;71.5
68891;BME280;55932;48.702;8.884;2023-05-08T10:11:15;96550;;;16.8;71.5
68891;BME280;55932;48.702;8.884;2023-05-08T10:13:39;96560;;;16.7;71.5
68891;BME280;55932;48.702;8.884;2023-05-08T10:18:34;96560;;;16.7;71.5
68891;BME280;55932;48.702;8.884;2023-05-08T10:21:05;96560;;;16.6;71.5
68891;BME280;55932;48.702;8.884;2023-05-08T10:23:35;96560;;;16.7;71
68891;BME280;55932;48.702;8.884;2023-05-08T10:26:07;96560;;;16.5;71.5
68891;BME280;55932;48.702;8.884;2023-05-08T10:33:39;96560;;;16.1;72
68891;BME280;55932;48.702;8.884;2023-05-08T10:36:09;96560;;;16;72
68891;BME280;55932;48.702;8.884;2023-05-08T10:38:47;96560;;;16.1;72
68891;BME280;55932;48.702;8.884;2023-05-08T10:41:18;96560;;;16.2;71.5
68891;BME280;55932;48.702;8.884;2023-05-08T10:43:49;96550;;;16.3;71.5
68891;BME280;55932;48.702;8.884;2023-05-08T10:46:16;96550;;;16.6;71
68891;BME280;55932;48.702;8.884;2023-05-08T10:48:47;96560;;;16.8;71
68891;BME280;55932;48.702;8.884;2023-05-08T10:51:16;96550;;;16.8;71
68891;BME280;55932;48.702;8.884;2023-05-08T10:53:48;96540;;;16.9;71
68891;BME280;55932;48.702;8.884;2023-05-08T11:01:17;96540;;;17.3;70
68891;BME280;55932;48.702;8.884;2023-05-08T11:03:48;96540;;;17.5;69.5
68891;BME280;55932;48.702;8.884;2023-05-08T11:09:12;96540;;;17.4;70
68891;BME280;55932;48.702;8.884;2023-05-08T11:11:50;96540;;;17.4;70
68891;BME280;55932;48.702;8.884;2023-05-08T11:14:09;96540;;;17.5;70
68891;BME280;55932;48.702;8.884;2023-05-08T11:17:04;96540;;;17.2;70.5
68891;BME280;55932;48.702;8.884;2023-05-08T11:19:14;96540;;;17.1;71.5
68891;BME280;55932;48.702;8.884;2023-05-08T11:23:56;96540;;;17.4;71
68891;BME280;55932;48.702;8.884;2023-05-08T11:26:37;96530;;;17.3;71.5
68891;BME280;55932;48.702;8.884;2023-05-08T11:28:58;96530;;;17.6;71
68891;BME280;55932;48.702;8.884;2023-05-08T11:31:51;96530;;;18.3;70.5
68891;BME280;55932;48.702;8.884;2023-05-08T11:39:21;96530;;;18.7;69.5
68891;BME280;55932;48.702;8.884;2023-05-08T11:41:38;96530;;;18.6;70
68891;BME280;55932;48.702;8.884;2023-05-08T11:46:34;96530;;;18.7;70.5
68891;BME280;55932;48.702;8.884;2023-05-08T11:49:04;96530;;;19.1;69.5
68891;BME280;55932;48.702;8.884;2023-05-08T11:51:35;96520;;;19.4;68.5
68891;BME280;55932;48.702;8.884;2023-05-08T11:54:05;96520;;;19.8;68
68891;BME280;55932;48.702;8.884;2023-05-08T11:56:37;96520;;;21;67
68891;BME280;55932;48.702;8.884;2023-05-08T11:59:14;96510;;;22.1;66
68891;BME280;55932;48.702;8.884;2023-05-08T12:04:10;96520;;;21.7;67
68891;BME280;55932;48.702;8.884;2023-05-08T12:06:40;96520;;;21.1;68.5
68891;BME280;55932;48.702;8.884;2023-05-08T12:11:50;96520;;;20.5;69
68891;BME280;55932;48.702;8.884;2023-05-08T12:14:21;96520;;;21;68.5
68891;BME280;55932;48.702;8.884;2023-05-08T12:19:13;96520;;;22;68
68891;BME280;55932;48.702;8.884;2023-05-08T12:21:44;96520;;;22;68.5
68891;BME280;55932;48.702;8.884;2023-05-08T12:24:15;96520;;;22.6;68.5
68891;BME280;55932;48.702;8.884;2023-05-08T12:26:53;96520;;;23.2;67
68891;BME280;55932;48.702;8.884;2023-05-08T12:29:23;96510;;;23.4;66.5
68891;BME280;55932;48.702;8.884;2023-05-08T12:32:00;96520;;;23.3;66.5
68891;BME280;55932;48.702;8.884;2023-05-08T12:37:02;96520;;;22.7;68
68891;BME280;55932;48.702;8.884;2023-05-08T12:39:24;96520;;;22.5;67.5
68891;BME280;55932;48.702;8.884;2023-05-08T12:41:54;96510;;;22;68
68891;BME280;55932;48.702;8.884;2023-05-08T12:44:25;96520;;;21.8;68.5
68891;BME280;55932;48.702;8.884;2023-05-08T12:46:50;96510;;;21.7;68.5
68891;BME280;55932;48.702;8.884;2023-05-08T12:49:27;96520;;;21.5;69
68891;BME280;55932;48.702;8.884;2023-05-08T12:51:59;96520;;;20.7;70
68891;BME280;55932;48.702;8.884;2023-05-08T12:56:55;96520;;;20.2;71
68891;BME280;55932;48.702;8.884;2023-05-08T12:59:28;96520;;;20.1;71
68891;BME280;55932;48.702;8.884;2023-05-08T13:01:55;96510;;;20.2;71
68891;BME280;55932;48.702;8.884;2023-05-08T13:04:26;96520;;;20.3;71
68891;BME280;55932;48.702;8.884;2023-05-08T13:09:34;96510;;;21.2;70
68891;BME280;55932;48.702;8.884;2023-05-08T13:12:05;96500;;;21.8;68.5
68891;BME280;55932;48.702;8.884;2023-05-08T13:17:20;96510;;;22;69
68891;BME280;55932;48.702;8.884;2023-05-08T13:22:08;96510;;;21.7;69
68891;BME280;55932;48.702;8.884;2023-05-08T13:24:38;96500;;;22.2;68.5
68891;BME280;55932;48.702;8.884;2023-05-08T13:29:33;96500;;;24.1;68
68891;BME280;55932;48.702;8.884;2023-05-08T13:32:03;96500;;;24.3;68
68891;BME280;55932;48.702;8.884;2023-05-08T13:34:34;96500;;;24.6;67
68891;BME280;55932;48.702;8.884;2023-05-08T13:37:12;96490;;;25.1;66
68891;BME280;55932;48.702;8.884;2023-05-08T13:47:16;96480;;;21.3;67.5
68891;BME280;55932;48.702;8.884;2023-05-08T13:49:46;96480;;;21.1;68.5
68891;BME280;55932;48.702;8.884;2023-05-08T13:54:39;96480;;;20.3;69.5
68891;BME280;55932;48.702;8.884;2023-05-08T13:57:10;96480;;;20.1;69.5
68891;BME280;55932;48.702;8.884;2023-05-08T13:59:41;96480;;;19.7;70
68891;BME280;55932;48.702;8.884;2023-05-08T14:02:12;96480;;;19.4;70.5
68891;BME280;55932;48.702;8.884;2023-05-08T14:04:44;96480;;;19;71
68891;BME280;55932;48.702;8.884;2023-05-08T14:07:21;96480;;;18.6;71
68891;BME280;55932;48.702;8.884;2023-05-08T14:14:53;96480;;;18.2;71.5
68891;BME280;55932;48.702;8.884;2023-05-08T14:17:23;96480;;;18;72
68891;BME280;55932;48.702;8.884;2023-05-08T14:22:17;96480;;;17.7;72
68891;BME280;55932;48.702;8.884;2023-05-08T14:24:48;96480;;;17.6;72
68891;BME280;55932;48.702;8.884;2023-05-08T14:27:19;96480;;;17.6;72
68891;BME280;55932;48.702;8.884;2023-05-08T14:29:50;96470;;;17.5;72
68891;BME280;55932;48.702;8.884;2023-05-08T14:32:27;96470;;;17.5;72
68891;BME280;55932;48.702;8.884;2023-05-08T14:34:57;96480;;;17.3;72
68891;BME280;55932;48.702;8.884;2023-05-08T14:37:34;96480;;;17.2;72.5
68891;BME280;55932;48.702;8.884;2023-05-08T14:39:58;96480;;;17.2;72.5
68891;BME280;55932;48.702;8.884;2023-05-08T14:42:28;96480;;;17.2;72.5
68891;BME280;55932;48.702;8.884;2023-05-08T14:44:58;96480;;;17.2;72
68891;BME280;55932;48.702;8.884;2023-05-08T14:47:30;96480;;;17.3;72
68891;BME280;55932;48.702;8.884;2023-05-08T14:52:22;96470;;;17.2;72
68891;BME280;55932;48.702;8.884;2023-05-08T14:54:53;96470;;;17.2;72
68891;BME280;55932;48.702;8.884;2023-05-08T14:57:24;96470;;;17.2;72
68891;BME280;55932;48.702;8.884;2023-05-08T15:00:02;96470;;;17.2;72
68891;BME280;55932;48.702;8.884;2023-05-08T15:07:34;96480;;;17.2;72
68891;BME280;55932;48.702;8.884;2023-05-08T15:10:05;96480;;;17.2;72
68891;BME280;55932;48.702;8.884;2023-05-08T15:12:34;96470;;;17.2;72
68891;BME280;55932;48.702;8.884;2023-05-08T15:14:59;96480;;;17.1;72
68891;BME280;55932;48.702;8.884;2023-05-08T15:17:30;96470;;;17.1;72
68891;BME280;55932;48.702;8.884;2023-05-08T15:20:01;96470;;;17.1;72
68891;BME280;55932;48.702;8.884;2023-05-08T15:27:45;96480;;;16.9;72.5
68891;BME280;55932;48.702;8.884;2023-05-08T15:30:23;96480;;;16.9;72.5
68891;BME280;55932;48.702;8.884;2023-05-08T15:35:03;96480;;;17;72
68891;BME280;55932;48.702;8.884;2023-05-08T15:37:34;96480;;;17;72
68891;BME280;55932;48.702;8.884;2023-05-08T15:40:06;96480;;;17;72
68891;BME280;55932;48.702;8.884;2023-05-08T15:42:36;96480;;;17;72
68891;BME280;55932;48.702;8.884;2023-05-08T15:45:13;96480;;;16.9;72
68891;BME280;55932;48.702;8.884;2023-05-08T15:47:45;96490;;;16.7;72.5
68891;BME280;55932;48.702;8.884;2023-05-08T15:52:40;96500;;;16.3;72.5
68891;BME280;55932;48.702;8.884;2023-05-08T15:55:12;96490;;;16.3;73
68891;BME280;55932;48.702;8.884;2023-05-08T15:57:42;96500;;;16.4;72.5
68891;BME280;55932;48.702;8.884;2023-05-08T16:00:13;96490;;;16.3;72.5
68891;BME280;55932;48.702;8.884;2023-05-08T16:02:44;96490;;;16.3;72.5
68891;BME280;55932;48.702;8.884;2023-05-08T16:05:15;96490;;;16.1;72.5
68891;BME280;55932;48.702;8.884;2023-05-08T16:07:53;96490;;;16.1;72.5
68891;BME280;55932;48.702;8.884;2023-05-08T16:15:25;96500;;;15.8;73
68891;BME280;55932;48.702;8.884;2023-05-08T16:17:55;96500;;;15.7;73
68891;BME280;55932;48.702;8.884;2023-05-08T16:22:51;96500;;;15.7;73
68891;BME280;55932;48.702;8.884;2023-05-08T16:25:20;96510;;;15.8;73
68891;BME280;55932;48.702;8.884;2023-05-08T16:27:51;96510;;;15.8;73
68891;BME280;55932;48.702;8.884;2023-05-08T16:35:17;96510;;;15.6;73
68891;BME280;55932;48.702;8.884;2023-05-08T16:37:48;96510;;;15.7;73
68891;BME280;55932;48.702;8.884;2023-05-08T16:40:19;96510;;;15.8;73
68891;BME280;55932;48.702;8.884;2023-05-08T16:42:50;96510;;;15.8;72.5
68891;BME280;55932;48.702;8.884;2023-05-08T16:47:57;96500;;;15.9;72.5
68891;BME280;55932;48.702;8.884;2023-05-08T16:50:28;96500;;;16;72.5
68891;BME280;55932;48.702;8.884;2023-05-08T16:52:59;96500;;;16.1;72.5
68891;BME280;55932;48.702;8.884;2023-05-08T16:55:30;96500;;;16.1;72.5
68891;BME280;55932;48.702;8.884;2023-05-08T16:58:01;96500;;;16.2;72.5
68891;BME280;55932;48.702;8.884;2023-05-08T17:00:32;96500;;;16.1;72.5
68891;BME280;55932;48.702;8.884;2023-05-08T17:03:09;96500;;;16.1;72.5
68891;BME280;55932;48.702;8.884;2023-05-08T17:05:40;96500;;;16.2;72.5
68891;BME280;55932;48.702;8.884;2023-05-08T17:08:05;96500;;;16.4;72
68891;BME280;55932;48.702;8.884;2023-05-08T17:10:36;96490;;;16.4;72
68891;BME280;55932;48.702;8.884;2023-05-08T17:13:07;96490;;;16.3;72
68891;BME280;55932;48.702;8.884;2023-05-08T17:18:05;96500;;;16.3;72.5
68891;BME280;55932;48.702;8.884;2023-05-08T17:20:33;96510;;;16.2;72.5
68891;BME280;55932;48.702;8.884;2023-05-08T17:23:03;96500;;;16.2;72.5
68891;BME280;55932;48.702;8.884;2023-05-08T17:25:34;96510;;;16.3;72.5
68891;BME280;55932;48.702;8.884;2023-05-08T17:35:37;96520;;;16.6;72
68891;BME280;55932;48.702;8.884;2023-05-08T17:38:08;96520;;;16.6;72.5
68891;BME280;55932;48.702;8.884;2023-05-08T17:40:39;96520;;;16.7;72
68891;BME280;55932;48.702;8.884;2023-05-08T17:43:10;96520;;;16.7;72
68891;BME280;55932;48.702;8.884;2023-05-08T17:45:47;96520;;;16.6;72
68891;BME280;55932;48.702;8.884;2023-05-08T17:48:18;96520;;;16.6;72
68891;BME280;55932;48.702;8.884;2023-05-08T17:50:49;96520;;;16.6;72
68891;BME280;55932;48.702;8.884;2023-05-08T17:53:13;96520;;;16.4;72.5
68891;BME280;55932;48.702;8.884;2023-05-08T17:55:44;96530;;;16.3;72.5
68891;BME280;55932;48.702;8.884;2023-05-08T18:00:46;96520;;;16.3;72.5
68891;BME280;55932;48.702;8.884;2023-05-08T18:05:47;96520;;;16.2;72.5
68891;BME280;55932;48.702;8.884;2023-05-08T18:08:18;96520;;;16.2;72.5
68891;BME280;55932;48.702;8.884;2023-05-08T18:10:48;96530;;;16.2;72.5
68891;BME280;55932;48.702;8.884;2023-05-08T18:13:19;96530;;;16.1;72.5
68891;BME280;55932;48.702;8.884;2023-05-08T18:18:27;96530;;;16;72.5
68891;BME280;55932;48.702;8.884;2023-05-08T18:20:57;96520;;;15.8;73
68891;BME280;55932;48.702;8.884;2023-05-08T18:23:29;96530;;;15.5;73
68891;BME280;55932;48.702;8.884;2023-05-08T18:26:00;96530;;;15.3;73.5
68891;BME280;55932;48.702;8.884;2023-05-08T18:28:37;96530;;;15.2;73.5
68891;BME280;55932;48.702;8.884;2023-05-08T18:33:33;96540;;;14.7;74
68891;BME280;55932;48.702;8.884;2023-05-08T18:38:41;96540;;;14.4;74
68891;BME280;55932;48.702;8.884;2023-05-08T18:41:10;96540;;;14.2;74
68891;BME280;55932;48.702;8.884;2023-05-08T18:46:06;96540;;;14.1;74.5
68891;BME280;55932;48.702;8.884;2023-05-08T18:48:35;96540;;;14;74.5
68891;BME280;55932;48.702;8.884;2023-05-08T18:51:06;96540;;;14;74.5
68891;BME280;55932;48.702;8.884;2023-05-08T18:53:37;96540;;;14;74
68891;BME280;55932;48.702;8.884;2023-05-08T18:56:15;96540;;;14;74